Time;durP1;ratioP1;P1;durP2;ratioP2;P2;SDS_P1;SDS_P2;PMS_P1;PMS_P2;Temp;Humidity;BMP_temperature;BMP_pressure;BME280_temperature;BME280_humidity;BME280_pressure;Samples;Min_cycle;Max_cycle;Signal;HPM_P1;HPM_P2
2024/04/04 00:00:00;;;;;;;1.57;1.03;;;8.40;99.90;;;9.23;100.00;97555.72;5000954;28;20472;-78
2024/04/04 00:02:28;;;;;;;6.80;1.30;;;8.40;99.90;;;9.22;100.00;97559.31;4998590;28;20491;-78
2024/04/04 00:05:01;;;;;;;3.67;1.20;;;8.40;99.90;;;9.28;100.00;97549.91;5000982;28;20475;-78
2024/04/04 00:07:31;;;;;;;8.83;1.30;;;8.40;99.90;;;9.26;100.00;97547.50;4990121;28;20478;-78
2024/04/04 00:09:58;;;;;;;4.53;1.40;;;8.40;99.90;;;9.29;100.00;97548.91;4994212;28;20530;-78
2024/04/04 00:12:26;;;;;;;2.13;1.20;;;8.40;99.90;;;9.26;100.00;97550.13;4997035;28;20500;-78
2024/04/04 00:14:52;;;;;;;5.70;1.43;;;8.40;99.90;;;9.26;100.00;97554.53;4996847;28;21064;-77
2024/04/04 00:17:20;;;;;;;8.20;1.30;;;8.40;99.90;;;9.29;100.00;97539.28;4994993;28;20848;-78
2024/04/04 00:19:47;;;;;;;5.50;1.40;;;8.40;99.90;;;9.30;100.00;97543.50;4997790;28;20475;-78
2024/04/04 00:22:14;;;;;;;3.07;1.60;;;8.40;99.90;;;9.30;100.00;97546.09;5009616;28;20482;-78
2024/04/04 00:24:42;;;;;;;1.83;1.40;;;8.40;99.90;;;9.34;100.00;97542.13;4998270;28;21025;-78
2024/04/04 00:27:10;;;;;;;4.77;1.50;;;8.50;99.90;;;9.33;100.00;97542.31;5000127;28;20474;-78
2024/04/04 00:29:36;;;;;;;3.33;1.20;;;8.50;99.90;;;9.33;100.00;97537.13;5000315;28;20482;-78
2024/04/04 00:32:04;;;;;;;5.10;1.30;;;8.50;99.90;;;9.34;100.00;97534.28;5001659;28;20494;-78
2024/04/04 00:34:31;;;;;;;1.73;1.60;;;8.50;99.90;;;9.38;100.00;97522.47;4997769;28;20470;-78
2024/04/04 00:36:58;;;;;;;5.50;1.40;;;8.60;99.90;;;9.41;100.00;97516.88;5002648;28;20486;-78
2024/04/04 00:39:24;;;;;;;3.30;1.60;;;8.70;99.90;;;9.48;100.00;97522.94;5006803;28;20959;-78
2024/04/04 00:41:53;;;;;;;10.23;1.57;;;8.70;99.90;;;9.46;100.00;97514.50;5017181;28;20544;-78
2024/04/04 00:44:20;;;;;;;6.20;1.30;;;8.70;99.90;;;9.50;100.00;97523.56;5007751;28;20463;-77
2024/04/04 00:46:48;;;;;;;5.07;1.70;;;8.70;99.90;;;9.53;100.00;97517.94;5022652;28;20465;-78
2024/04/04 00:49:15;;;;;;;2.13;1.30;;;8.70;99.90;;;9.52;100.00;97512.91;5007359;28;20452;-78
2024/04/04 00:51:43;;;;;;;3.03;1.30;;;8.70;99.90;;;9.57;100.00;97511.34;5003614;28;20488;-78
2024/04/04 00:54:09;;;;;;;2.70;1.20;;;8.70;99.90;;;9.58;100.00;97512.13;5005929;28;20533;-78
2024/04/04 00:56:37;;;;;;;1.63;1.10;;;8.80;99.90;;;9.60;100.00;97512.75;5018922;28;20474;-78
2024/04/04 00:59:06;;;;;;;3.43;1.13;;;8.80;99.90;;;9.61;100.00;97512.56;5004033;28;20466;-78
2024/04/04 01:01:33;;;;;;;13.30;1.60;;;8.80;99.90;;;9.58;100.00;97499.88;5022605;28;20475;-77
2024/04/04 01:04:00;;;;;;;3.70;1.40;;;8.80;99.90;;;9.59;100.00;97493.69;5000278;28;20475;-78
2024/04/04 01:06:31;;;;;;;3.87;1.00;;;8.80;99.90;;;9.58;100.00;97496.47;5020788;28;20471;-78
2024/04/04 01:08:58;;;;;;;5.97;1.67;;;8.80;99.90;;;9.57;100.00;97500.91;5003258;28;20485;-78
2024/04/04 01:11:26;;;;;;;1.60;1.40;;;8.80;99.90;;;9.50;100.00;97494.03;5006106;28;20851;-78
2024/04/04 01:13:52;;;;;;;1.40;1.30;;;8.90;99.90;;;9.54;100.00;97490.84;5003593;28;20869;-78
2024/04/04 01:16:21;;;;;;;3.90;1.63;;;8.90;99.90;;;9.59;100.00;97488.47;5005148;28;21006;-78
2024/04/04 01:18:48;;;;;;;4.00;1.50;;;8.90;99.90;;;9.64;100.00;97485.28;4999737;28;20456;-78
2024/04/04 01:21:15;;;;;;;2.33;1.43;;;8.90;99.90;;;9.64;100.00;97489.69;5000768;28;20493;-77
2024/04/04 01:23:43;;;;;;;2.90;1.93;;;8.90;99.90;;;9.66;100.00;97485.06;5005462;28;20469;-78
2024/04/04 01:26:11;;;;;;;4.40;1.40;;;9.00;99.90;;;9.75;100.00;97476.09;5016017;28;20476;-78
2024/04/04 01:28:38;;;;;;;2.03;1.47;;;9.10;99.90;;;9.82;100.00;97479.53;5018590;28;20522;-78
2024/04/04 01:31:05;;;;;;;3.87;1.47;;;9.20;99.90;;;9.91;100.00;97473.91;5006305;28;20467;-78
2024/04/04 01:33:32;;;;;;;4.40;1.50;;;9.30;99.90;;;9.95;100.00;97466.50;5002276;28;20503;-78
2024/04/04 01:35:59;;;;;;;2.63;1.17;;;9.30;99.90;;;10.02;100.00;97467.31;5005172;28;20478;-78
2024/04/04 01:38:26;;;;;;;2.37;1.23;;;9.30;99.90;;;10.06;100.00;97458.91;4999915;28;20456;-77
2024/04/04 01:40:54;;;;;;;5.53;1.50;;;9.40;99.90;;;10.12;100.00;97467.75;5003000;28;20527;-77
2024/04/04 01:43:21;;;;;;;2.00;1.00;;;9.40;99.90;;;10.17;100.00;97454.91;5001421;28;20479;-76
2024/04/04 01:45:49;;;;;;;6.43;1.40;;;9.50;99.90;;;10.23;100.00;97453.31;4998266;28;20993;-78
2024/04/04 01:48:15;;;;;;;1.80;1.10;;;9.50;99.90;;;10.31;100.00;97453.13;5000621;28;20512;-78
2024/04/04 01:50:43;;;;;;;1.70;1.00;;;9.70;99.90;;;10.34;100.00;97445.69;5001373;28;20834;-78
2024/04/04 01:53:09;;;;;;;3.00;1.17;;;9.70;99.90;;;10.38;100.00;97446.88;5003022;28;20498;-78
2024/04/04 01:55:36;;;;;;;2.53;1.07;;;9.70;99.90;;;10.42;100.00;97442.06;5005476;28;20517;-78
2024/04/04 01:58:04;;;;;;;2.03;1.03;;;9.80;99.90;;;10.46;100.00;97444.09;5018598;28;20978;-78
2024/04/04 02:00:32;;;;;;;1.33;1.10;;;9.80;99.90;;;10.48;100.00;97439.44;5007352;28;20499;-78
2024/04/04 02:02:58;;;;;;;1.17;0.97;;;9.80;99.90;;;10.54;100.00;97448.31;5003476;28;20477;-78
2024/04/04 02:05:26;;;;;;;1.73;0.90;;;9.90;99.90;;;10.57;100.00;97450.53;5002143;28;20472;-78
2024/04/04 02:07:52;;;;;;;1.17;1.03;;;9.90;99.90;;;10.62;100.00;97455.94;5007860;28;20472;-76
2024/04/04 02:10:20;;;;;;;2.30;1.10;;;10.00;99.90;;;10.65;100.00;97455.56;5019960;28;20496;-77
2024/04/04 02:12:47;;;;;;;3.20;1.10;;;10.00;99.90;;;10.67;100.00;97452.72;5020056;28;20540;-78
2024/04/04 02:15:16;;;;;;;2.27;1.27;;;10.10;99.90;;;10.68;100.00;97446.50;5004232;28;20478;-77
2024/04/04 02:17:43;;;;;;;1.70;1.10;;;10.10;99.90;;;10.71;100.00;97441.66;5005020;28;20490;-78
2024/04/04 02:20:12;;;;;;;2.90;1.43;;;10.10;99.90;;;10.76;100.00;97441.84;5019425;28;21275;-79
2024/04/04 02:22:38;;;;;;;2.47;1.20;;;10.20;99.90;;;10.80;100.00;97440.44;5002493;28;20463;-77
2024/04/04 02:25:07;;;;;;;1.07;0.90;;;10.20;99.90;;;10.85;100.00;97437.22;5007385;28;20488;-77
2024/04/04 02:27:33;;;;;;;1.37;1.00;;;10.30;99.90;;;10.89;100.00;97433.19;5008026;28;20469;-78
2024/04/04 02:30:01;;;;;;;1.10;1.00;;;10.30;99.90;;;10.89;100.00;97427.97;5006580;28;20475;-77
2024/04/04 02:32:30;;;;;;;1.00;0.90;;;10.30;99.90;;;10.92;100.00;97430.16;5004961;28;21014;-79
2024/04/04 02:34:58;;;;;;;1.47;1.00;;;10.30;99.90;;;10.93;100.00;97423.94;5003702;28;20968;-78
2024/04/04 02:37:25;;;;;;;3.53;1.07;;;10.30;99.90;;;10.96;100.00;97424.34;5016545;28;20483;-78
2024/04/04 02:39:52;;;;;;;1.77;1.30;;;10.30;99.90;;;10.99;100.00;97415.28;5003707;28;20479;-77
2024/04/04 02:42:20;;;;;;;6.20;1.30;;;10.30;99.90;;;11.02;100.00;97417.47;5015270;28;20481;-78
2024/04/04 02:44:48;;;;;;;5.87;1.37;;;10.40;99.90;;;11.02;100.00;97422.69;5003629;28;20799;-77
2024/04/04 02:47:15;;;;;;;2.83;1.23;;;10.40;99.90;;;11.02;100.00;97420.91;5001412;28;21005;-77
2024/04/04 02:49:44;;;;;;;5.40;1.87;;;10.40;99.90;;;11.04;100.00;97421.47;4998859;28;20477;-78
2024/04/04 02:52:10;;;;;;;3.10;2.03;;;10.50;99.90;;;11.06;100.00;97414.25;4999890;28;20497;-77
2024/04/04 02:54:38;;;;;;;3.93;1.73;;;10.40;99.90;;;11.11;100.00;97416.22;4999634;28;20479;-78
2024/04/04 02:57:05;;;;;;;10.73;2.50;;;10.40;99.90;;;11.11;100.00;97413.59;5015028;28;20467;-78
2024/04/04 02:59:32;;;;;;;16.00;2.37;;;10.40;99.90;;;11.12;100.00;97412.59;4998359;28;20533;-77
2024/04/04 03:01:58;;;;;;;6.03;2.00;;;10.40;99.90;;;11.12;100.00;97407.38;5001773;28;20511;-78
2024/04/04 03:04:26;;;;;;;4.03;2.10;;;10.40;99.90;;;11.13;100.00;97405.56;4999378;28;20474;-75
2024/04/04 03:06:54;;;;;;;48.97;20.57;;;10.50;99.90;;;11.14;100.00;97405.38;5001113;28;20820;-81
2024/04/04 03:09:23;;;;;;;8.53;2.20;;;10.50;99.90;;;11.16;100.00;97402.53;4999282;28;20474;-77
2024/04/04 03:11:49;;;;;;;2.57;1.90;;;10.60;99.90;;;11.16;100.00;97390.25;5001816;28;21301;-77
2024/04/04 03:14:16;;;;;;;4.93;2.13;;;10.50;99.90;;;11.20;100.00;97398.50;5000300;28;20491;-79
2024/04/04 03:16:43;;;;;;;103.50;57.07;;;10.50;99.90;;;11.21;100.00;97400.13;5014607;28;20482;-78
2024/04/04 03:19:11;;;;;;;11.30;5.40;;;10.60;99.90;;;11.19;100.00;97392.47;5013285;28;20478;-79
2024/04/04 03:21:38;;;;;;;4.30;1.67;;;10.60;99.90;;;11.19;100.00;97394.28;5000245;28;20483;-79
2024/04/04 03:24:07;;;;;;;11.80;2.00;;;10.60;99.90;;;11.18;100.00;97385.59;5002954;28;20497;-79
2024/04/04 03:26:33;;;;;;;3.70;1.60;;;10.50;99.90;;;11.23;100.00;97387.63;5004216;28;20469;-79
2024/04/04 03:29:02;;;;;;;6.43;2.30;;;10.50;99.90;;;11.24;100.00;97386.63;5002963;28;20490;-79
2024/04/04 03:31:29;;;;;;;5.90;2.20;;;10.50;99.90;;;11.26;100.00;97388.00;5000866;28;20951;-79
2024/04/04 03:33:56;;;;;;;6.20;2.37;;;10.50;99.90;;;11.25;100.00;97383.78;5003196;28;20494;-77
2024/04/04 03:36:23;;;;;;;9.27;2.77;;;10.50;99.90;;;11.25;100.00;97369.88;5018308;28;20475;-82
2024/04/04 03:38:50;;;;;;;22.33;9.60;;;10.60;99.90;;;11.26;100.00;97384.59;5000051;28;20509;-77
2024/04/04 03:41:19;;;;;;;7.90;2.50;;;10.60;99.90;;;11.28;100.00;97385.97;4999949;28;20475;-78
2024/04/04 03:43:47;;;;;;;8.27;4.70;;;10.70;99.90;;;11.26;100.00;97369.69;5003541;28;20474;-78
2024/04/04 03:46:13;;;;;;;10.57;3.10;;;10.70;99.90;;;11.27;100.00;97371.31;5000530;28;21094;-79
2024/04/04 03:48:41;;;;;;;9.07;3.00;;;10.70;99.90;;;11.29;100.00;97360.59;5001189;28;20466;-78
2024/04/04 03:51:07;;;;;;;7.97;2.47;;;10.70;99.90;;;11.33;100.00;97361.81;5017719;28;20527;-79
2024/04/04 03:53:35;;;;;;;12.30;3.60;;;10.70;99.90;;;11.31;100.00;97359.41;5005113;28;20488;-78
2024/04/04 03:56:02;;;;;;;4.87;2.13;;;10.70;99.90;;;11.33;100.00;97353.94;4998903;28;20494;-78
2024/04/04 03:58:31;;;;;;;4.10;2.60;;;10.70;99.90;;;11.35;100.00;97355.34;5006516;28;20469;-78
2024/04/04 04:00:58;;;;;;;5.70;3.63;;;10.80;99.90;;;11.39;100.00;97342.63;5002809;28;20502;-79
2024/04/04 04:03:25;;;;;;;5.83;2.37;;;10.80;99.90;;;11.39;100.00;97346.06;4999625;28;20826;-78
2024/04/04 04:05:52;;;;;;;9.60;2.67;;;10.80;99.90;;;11.42;100.00;97350.88;5002879;28;20492;-78
2024/04/04 04:08:19;;;;;;;5.07;2.23;;;10.80;99.90;;;11.46;100.00;97346.03;5001562;28;20476;-79
2024/04/04 04:10:46;;;;;;;8.13;2.47;;;10.90;99.90;;;11.46;100.00;97341.59;4999278;28;20811;-77
2024/04/04 04:13:13;;;;;;;9.30;2.37;;;10.90;99.90;;;11.47;100.00;97337.97;5005687;28;20490;-79
2024/04/04 04:15:41;;;;;;;8.47;2.30;;;10.90;99.90;;;11.49;100.00;97330.69;5005465;28;20471;-78
2024/04/04 04:18:09;;;;;;;12.73;2.90;;;11.00;99.90;;;11.50;100.00;97342.78;5002563;28;21183;-79
2024/04/04 04:23:22;;;;;;;6.63;2.00;;;10.90;99.90;;;11.49;100.00;97348.22;4996643;28;20472;-84
2024/04/04 04:25:50;;;;;;;56.37;29.37;;;10.90;99.90;;;11.50;100.00;97352.44;4996402;28;20861;-78
2024/04/04 04:28:16;;;;;;;5.30;3.00;;;10.90;99.90;;;11.51;100.00;97354.88;4998772;28;20484;-78
2024/04/04 04:30:45;;;;;;;6.60;2.90;;;10.90;99.90;;;11.51;100.00;97348.84;4994968;28;20831;-78
2024/04/04 04:33:12;;;;;;;4.47;2.40;;;10.90;99.90;;;11.52;100.00;97340.75;4996484;28;20506;-78
2024/04/04 04:35:39;;;;;;;8.00;2.13;;;11.00;99.90;;;11.55;100.00;97339.56;5000454;28;20542;-79
2024/04/04 04:38:06;;;;;;;12.03;2.87;;;11.00;99.90;;;11.54;100.00;97337.94;4995797;28;20478;-79
2024/04/04 04:40:33;;;;;;;9.83;2.53;;;11.00;99.90;;;11.55;100.00;97337.75;4998651;28;20522;-79
2024/04/04 04:43:00;;;;;;;7.30;3.07;;;10.90;99.90;;;11.58;100.00;97334.69;5002928;28;20470;-79
2024/04/04 04:45:27;;;;;;;3.03;1.80;;;11.10;99.90;;;11.59;100.00;97336.28;5017173;28;20475;-79
2024/04/04 04:47:56;;;;;;;6.57;2.50;;;11.00;99.90;;;11.60;100.00;97322.19;5000033;28;20482;-79
2024/04/04 04:50:23;;;;;;;7.80;2.83;;;11.00;99.90;;;11.63;100.00;97315.72;5006568;28;21031;-79
2024/04/04 04:52:50;;;;;;;7.67;2.57;;;11.00;99.90;;;11.65;100.00;97318.13;5001443;28;20491;-79
2024/04/04 04:55:17;;;;;;;9.60;2.50;;;11.00;99.90;;;11.68;100.00;97313.28;4999498;28;20475;-79
2024/04/04 04:57:46;;;;;;;7.20;2.10;;;11.10;99.90;;;11.70;100.00;97300.75;5003560;28;20483;-79
2024/04/04 05:00:14;;;;;;;12.33;2.20;;;11.10;99.90;;;11.70;100.00;97311.22;5003767;28;20466;-79
2024/04/04 05:02:42;;;;;;;6.93;2.37;;;11.10;99.90;;;11.71;100.00;97306.84;5004088;28;20476;-79
2024/04/04 05:05:16;;;;;;;6.30;2.17;;;11.10;99.90;;;11.70;100.00;97307.84;4997655;28;20494;-79
2024/04/04 05:07:44;;;;;;;7.33;2.43;;;11.10;99.90;;;11.70;100.00;97299.97;5003333;28;20834;-79
2024/04/04 05:10:10;;;;;;;7.70;2.00;;;11.10;99.90;;;11.71;100.00;97301.59;4998169;28;20475;-79
2024/04/04 05:12:38;;;;;;;8.90;2.53;;;11.10;99.90;;;11.72;100.00;97309.25;5015103;28;20489;-79
2024/04/04 05:15:06;;;;;;;9.73;2.60;;;11.00;99.90;;;11.72;100.00;97298.78;4997600;28;20976;-78
2024/04/04 05:17:34;;;;;;;19.30;2.60;;;11.10;99.90;;;11.73;100.00;97310.06;5014838;28;20474;-79
2024/04/04 05:20:01;;;;;;;9.03;2.27;;;10.90;99.90;;;11.71;100.00;97302.41;4998173;28;20471;-79
2024/04/04 05:22:29;;;;;;;11.03;2.53;;;11.00;99.90;;;11.72;100.00;97295.34;5005847;28;20463;-79
2024/04/04 05:24:56;;;;;;;4.63;2.13;;;11.00;99.90;;;11.73;100.00;97295.13;5008213;28;20477;-78
2024/04/04 05:27:24;;;;;;;13.07;2.20;;;11.00;99.90;;;11.72;100.00;97301.41;5005917;28;20483;-78
2024/04/04 05:29:53;;;;;;;9.90;2.43;;;11.10;99.90;;;11.71;100.00;97293.75;5005556;28;20496;-79
2024/04/04 05:32:20;;;;;;;10.23;2.30;;;11.10;99.90;;;11.71;100.00;97286.69;5022354;28;20479;-79
2024/04/04 05:34:48;;;;;;;7.10;1.93;;;11.00;99.90;;;11.70;100.00;97284.25;5021830;28;20510;-78
2024/04/04 05:37:16;;;;;;;7.37;2.10;;;11.00;99.90;;;11.71;100.00;97280.63;5004917;28;20479;-79
2024/04/04 05:39:44;;;;;;;8.10;1.83;;;11.00;99.90;;;11.71;100.00;97283.25;5007486;28;20464;-78
2024/04/04 05:42:11;;;;;;;13.27;2.00;;;11.00;99.90;;;11.69;100.00;97282.66;5005605;28;20463;-78
2024/04/04 05:44:38;;;;;;;5.50;1.67;;;11.10;99.90;;;11.69;100.00;97275.59;5021253;28;21059;-78
2024/04/04 05:47:05;;;;;;;8.87;2.23;;;11.10;99.90;;;11.70;100.00;97271.16;5004379;28;21259;-79
2024/04/04 05:49:33;;;;;;;10.73;2.70;;;11.10;99.90;;;11.72;100.00;97277.00;5009317;28;20478;-79
2024/04/04 05:52:01;;;;;;;5.53;1.73;;;11.10;99.90;;;11.72;100.00;97277.00;5019492;28;20489;-79
2024/04/04 05:54:27;;;;;;;4.40;1.73;;;11.20;99.90;;;11.69;100.00;97280.03;5004475;28;20494;-78
2024/04/04 05:56:59;;;;;;;4.83;1.67;;;11.10;99.90;;;11.71;100.00;97270.16;5004733;28;20478;-78
2024/04/04 05:59:25;;;;;;;8.03;1.70;;;11.10;99.90;;;11.72;100.00;97263.91;5001553;28;21009;-78
2024/04/04 06:01:53;;;;;;;3.53;1.50;;;11.10;99.90;;;11.73;100.00;97268.94;5004135;28;20522;-77
2024/04/04 06:04:19;;;;;;;10.50;1.97;;;11.10;99.90;;;11.74;100.00;97269.72;5006609;28;20843;-79
2024/04/04 06:06:47;;;;;;;4.83;1.57;;;11.10;99.90;;;11.73;100.00;97268.94;4998758;28;20478;-78
2024/04/04 06:09:14;;;;;;;8.00;1.80;;;11.10;99.90;;;11.71;100.00;97262.31;5005540;28;20461;-79
2024/04/04 06:11:42;;;;;;;11.90;2.20;;;11.10;99.90;;;11.75;100.00;97266.09;5018217;28;20564;-79
2024/04/04 06:14:10;;;;;;;11.77;1.90;;;11.10;99.90;;;11.77;100.00;97258.81;5017140;28;21137;-78
2024/04/04 06:16:38;;;;;;;15.70;2.40;;;11.20;99.90;;;11.79;100.00;97259.44;5005770;28;20475;-78
2024/04/04 06:19:05;;;;;;;9.07;1.70;;;11.20;99.90;;;11.81;100.00;97260.00;5003998;28;20458;-78
2024/04/04 06:21:32;;;;;;;6.83;1.80;;;11.20;99.90;;;11.81;100.00;97254.78;5020518;28;20478;-78
2024/04/04 06:23:59;;;;;;;21.03;4.50;;;11.30;99.90;;;11.81;100.00;97257.38;5007560;28;20486;-77
2024/04/04 06:26:28;;;;;;;7.30;1.60;;;11.30;99.90;;;11.83;100.00;97261.41;5007370;28;20525;-78
2024/04/04 06:28:56;;;;;;;8.33;2.37;;;11.30;99.90;;;11.84;100.00;97254.34;5002970;28;20499;-78
2024/04/04 06:31:25;;;;;;;6.47;2.10;;;11.20;99.90;;;11.84;100.00;97254.34;5020799;28;20964;-79
2024/04/04 06:33:52;;;;;;;11.27;2.23;;;11.20;99.90;;;11.89;100.00;97244.03;5004130;28;21102;-78
2024/04/04 06:36:20;;;;;;;13.60;2.30;;;11.30;99.90;;;11.93;100.00;97250.44;5004713;28;20477;-78
2024/04/04 06:38:46;;;;;;;6.53;1.63;;;11.30;99.90;;;11.94;100.00;97262.53;5005839;28;20845;-80
2024/04/04 06:41:14;;;;;;;8.33;1.60;;;11.40;99.90;;;11.91;100.00;97250.66;5005474;28;20489;-78
2024/04/04 06:43:40;;;;;;;13.07;1.83;;;11.40;99.90;;;11.92;100.00;97257.50;5006154;28;20468;-79
2024/04/04 06:46:07;;;;;;;4.93;1.33;;;11.40;99.90;;;11.93;100.00;97259.13;5001893;28;20882;-79
2024/04/04 06:48:40;;;;;;;3.40;1.70;;;11.30;99.90;;;11.94;100.00;97254.69;5004006;28;20459;-79
2024/04/04 06:51:08;;;;;;;8.63;1.73;;;11.40;99.90;;;11.98;100.00;97247.97;5022273;28;20610;-79
2024/04/04 06:53:35;;;;;;;10.33;2.03;;;11.40;99.90;;;11.97;100.00;97254.25;5005918;28;20491;-79
2024/04/04 06:56:03;;;;;;;4.00;1.30;;;11.40;99.90;;;11.97;100.00;97247.19;5003270;28;20576;-78
2024/04/04 06:58:29;;;;;;;11.47;1.83;;;11.40;99.90;;;11.99;100.00;97260.06;5005885;28;20494;-78
2024/04/04 07:00:57;;;;;;;5.37;1.83;;;11.40;99.90;;;11.98;100.00;97261.88;5018331;28;20476;-79
2024/04/04 07:03:24;;;;;;;3.43;1.60;;;11.40;99.90;;;11.99;100.00;97252.19;5006444;28;20475;-78
2024/04/04 07:05:53;;;;;;;4.93;1.57;;;11.40;99.90;;;12.00;100.00;97243.34;4999324;28;20907;-78
2024/04/04 07:08:20;;;;;;;3.87;1.70;;;11.50;99.90;;;12.05;100.00;97256.56;5016289;28;20473;-78
2024/04/04 07:10:48;;;;;;;5.33;1.60;;;11.50;99.90;;;12.04;100.00;97260.22;5001372;28;20471;-78
2024/04/04 07:13:16;;;;;;;4.10;1.57;;;11.50;99.90;;;12.04;100.00;97261.00;5016783;28;21169;-78
2024/04/04 07:15:44;;;;;;;3.80;1.33;;;11.40;99.90;;;12.06;100.00;97264.22;5017923;28;20481;-78
2024/04/04 07:18:10;;;;;;;4.80;1.20;;;11.50;99.90;;;12.05;100.00;97264.44;5006686;28;20542;-78
2024/04/04 07:20:38;;;;;;;4.87;1.80;;;11.50;99.90;;;12.02;100.00;97270.91;5002262;28;20449;-78
2024/04/04 07:23:07;;;;;;;3.57;1.47;;;11.50;99.90;;;12.02;100.00;97272.72;5004524;28;20462;-78
2024/04/04 07:25:34;;;;;;;2.80;1.50;;;11.50;99.90;;;12.01;100.00;97269.31;5004182;28;21027;-78
2024/04/04 07:28:01;;;;;;;4.90;1.80;;;11.50;99.90;;;11.99;100.00;97273.97;5001695;28;20462;-78
2024/04/04 07:30:30;;;;;;;7.80;1.63;;;11.50;99.90;;;12.03;100.00;97269.09;5004370;28;20471;-78
2024/04/04 07:32:57;;;;;;;5.43;1.60;;;11.50;99.90;;;12.04;100.00;97265.47;5003313;28;20469;-78
2024/04/04 07:35:24;;;;;;;3.63;1.30;;;11.50;99.90;;;12.04;100.00;97255.78;5007191;28;20564;-78
2024/04/04 07:37:51;;;;;;;3.73;1.67;;;11.50;99.90;;;12.04;100.00;97261.00;5018566;28;20483;-78
2024/04/04 07:40:20;;;;;;;3.17;1.40;;;11.60;99.90;;;11.98;100.00;97267.13;5003663;28;20836;-78
2024/04/04 07:42:46;;;;;;;2.20;1.30;;;11.50;99.90;;;11.96;100.00;97265.75;5005489;28;20474;-78
2024/04/04 07:45:15;;;;;;;4.47;1.50;;;11.50;99.90;;;11.98;100.00;97268.94;5011589;28;20601;-79
2024/04/04 07:47:42;;;;;;;10.97;1.60;;;11.40;99.90;;;11.97;100.00;97265.53;5004424;28;20968;-78
2024/04/04 07:50:14;;;;;;;3.60;1.40;;;11.40;99.90;;;11.96;100.00;97261.31;4999805;28;20532;-79
2024/04/04 07:52:41;;;;;;;2.97;1.20;;;11.50;99.90;;;11.94;100.00;97265.16;5002695;28;20467;-78
2024/04/04 07:55:09;;;;;;;2.07;1.20;;;11.40;99.90;;;12.01;100.00;97273.75;4999923;28;20622;-78
2024/04/04 07:57:37;;;;;;;4.13;1.20;;;11.40;99.90;;;11.99;100.00;97279.22;5004263;28;20475;-79
2024/04/04 08:00:07;;;;;;;5.00;1.20;;;11.40;99.90;;;12.03;100.00;97284.81;4996221;28;20495;-78
2024/04/04 08:02:34;;;;;;;5.47;1.20;;;11.50;99.90;;;12.05;100.00;97278.34;5003196;28;20809;-79
2024/04/04 08:05:02;;;;;;;5.37;1.70;;;11.50;99.90;;;12.05;100.00;97282.78;5003578;28;20478;-78
2024/04/04 08:07:35;;;;;;;5.80;1.53;;;11.60;99.90;;;12.02;100.00;97298.94;5005308;28;20473;-78
2024/04/04 08:10:05;;;;;;;6.70;1.40;;;11.60;99.90;;;12.04;100.00;97291.69;5004700;28;21042;-79
2024/04/04 08:12:34;;;;;;;2.70;1.27;;;11.60;99.90;;;12.05;100.00;97299.31;5005264;28;20869;-78
2024/04/04 08:15:04;;;;;;;3.10;1.30;;;11.50;99.90;;;12.05;100.00;97293.25;5006589;28;20497;-79
2024/04/04 08:17:32;;;;;;;3.47;1.23;;;11.60;99.90;;;12.02;100.00;97301.56;5001401;28;20528;-78
2024/04/04 08:20:00;;;;;;;1.83;1.23;;;11.50;99.90;;;12.06;100.00;97314.03;5004305;28;20458;-78
2024/04/04 08:22:27;;;;;;;2.47;1.43;;;11.50;99.90;;;12.07;100.00;97310.41;5004523;28;20584;-78
2024/04/04 08:24:55;;;;;;;3.77;1.10;;;11.60;99.90;;;12.09;100.00;97325.88;5002338;28;20475;-79
2024/04/04 08:27:21;;;;;;;3.07;1.30;;;11.60;99.90;;;12.10;100.00;97330.13;5002930;28;20962;-78
2024/04/04 08:29:49;;;;;;;4.30;1.07;;;11.50;99.90;;;12.12;100.00;97330.69;5005327;28;20546;-79
2024/04/04 08:32:17;;;;;;;1.80;1.43;;;11.60;99.90;;;12.15;100.00;97335.50;5015237;28;20518;-78
2024/04/04 08:34:45;;;;;;;2.50;1.47;;;11.70;99.90;;;12.15;100.00;97340.75;5001135;28;20490;-78
2024/04/04 08:37:12;;;;;;;1.57;0.80;;;11.70;99.90;;;12.15;100.00;97345.22;5003322;28;20472;-78
2024/04/04 08:39:39;;;;;;;1.43;1.00;;;11.70;99.90;;;12.17;100.00;97341.34;5009878;28;20988;-79
2024/04/04 08:42:08;;;;;;;1.43;0.90;;;11.70;99.90;;;12.21;100.00;97363.50;5004205;28;20465;-78
2024/04/04 08:44:36;;;;;;;6.67;1.00;;;11.70;99.90;;;12.17;100.00;97359.72;4999777;28;20487;-78
2024/04/04 08:47:06;;;;;;;2.90;1.00;;;11.60;99.90;;;12.09;100.00;97370.44;4999635;28;20475;-78
2024/04/04 08:49:39;;;;;;;3.07;1.23;;;11.60;99.90;;;12.07;100.00;97367.25;4998748;28;20989;-78
2024/04/04 08:52:08;;;;;;;4.00;0.90;;;11.60;99.90;;;12.05;100.00;97362.19;5017221;28;20518;-78
2024/04/04 08:54:36;;;;;;;3.73;0.97;;;11.60;99.90;;;12.03;100.00;97377.34;5004295;28;20485;-79
2024/04/04 08:57:05;;;;;;;5.13;1.17;;;11.50;99.90;;;12.02;100.00;97362.63;5005561;28;21297;-80
2024/04/04 08:59:32;;;;;;;3.43;1.10;;;11.50;99.90;;;12.06;100.00;97365.63;5002957;28;20482;-80
2024/04/04 09:01:59;;;;;;;4.40;1.37;;;11.60;99.90;;;12.04;100.00;97391.25;5002740;28;20627;-78
2024/04/04 09:04:27;;;;;;;4.23;0.97;;;11.60;99.90;;;12.10;100.00;97400.88;5003770;28;20472;-78
2024/04/04 09:06:56;;;;;;;1.17;0.97;;;11.60;99.90;;;12.17;100.00;97399.03;5009692;28;20479;-78
2024/04/04 09:09:24;;;;;;;1.73;1.00;;;11.70;99.90;;;12.18;100.00;97394.59;5006190;28;21048;-78
2024/04/04 09:11:53;;;;;;;4.50;0.90;;;11.60;99.90;;;12.16;100.00;97394.78;5019224;28;20493;-78
2024/04/04 09:14:19;;;;;;;2.57;1.30;;;11.60;99.90;;;12.15;100.00;97408.13;5004084;28;20482;-78
2024/04/04 09:16:47;;;;;;;1.10;0.83;;;11.60;99.90;;;12.18;100.00;97402.44;5005386;28;20473;-79
2024/04/04 09:19:16;;;;;;;2.10;0.90;;;11.60;99.90;;;12.21;100.00;97409.88;5006259;28;20502;-78
2024/04/04 09:21:45;;;;;;;3.33;1.00;;;11.70;99.90;;;12.18;100.00;97399.84;5006377;28;20489;-79
2024/04/04 09:24:14;;;;;;;2.10;0.90;;;11.70;99.90;;;12.24;100.00;97410.25;5007097;28;20483;-77
2024/04/04 09:26:43;;;;;;;2.00;1.20;;;11.70;99.90;;;12.24;100.00;97397.16;5023696;28;20861;-79
2024/04/04 09:29:10;;;;;;;1.13;0.90;;;11.70;99.90;;;12.27;100.00;97407.22;5004942;28;20504;-78
2024/04/04 09:31:40;;;;;;;0.90;0.80;;;11.70;99.90;;;12.27;100.00;97412.44;5006801;28;20550;-79
2024/04/04 09:34:07;;;;;;;4.20;1.10;;;11.80;99.90;;;12.29;100.00;97413.03;5017779;28;21065;-78
2024/04/04 09:36:37;;;;;;;1.13;0.80;;;11.70;99.90;;;12.18;100.00;97424.22;5007948;28;21005;-77
2024/04/04 09:39:08;;;;;;;3.17;0.90;;;11.60;99.90;;;12.27;100.00;97425.56;5003318;28;20480;-78
2024/04/04 09:41:39;;;;;;;1.63;0.80;;;11.70;99.90;;;12.29;100.00;97425.34;5007858;28;20856;-78
2024/04/04 09:44:06;;;;;;;1.47;0.80;;;11.70;99.90;;;12.27;100.00;97428.19;5007164;28;20652;-78
2024/04/04 09:46:38;;;;;;;2.10;1.10;;;11.60;99.90;;;12.28;100.00;97434.22;5003593;28;20465;-78
2024/04/04 09:49:06;;;;;;;1.60;0.90;;;11.70;99.90;;;12.29;100.00;97425.34;5000991;28;20493;-79
2024/04/04 09:51:34;;;;;;;2.80;0.90;;;11.70;99.90;;;12.24;100.00;97439.09;5001685;28;20985;-79
2024/04/04 09:54:02;;;;;;;2.13;0.97;;;11.80;99.90;;;12.19;100.00;97452.03;5002333;28;20496;-79
2024/04/04 09:56:32;;;;;;;1.57;0.90;;;11.60;99.90;;;12.09;100.00;97441.19;5018429;28;20987;-79
2024/04/04 09:59:00;;;;;;;1.80;0.90;;;11.60;99.90;;;12.16;100.00;97444.59;5003005;28;20531;-79
2024/04/04 10:01:29;;;;;;;1.40;0.90;;;11.60;99.90;;;12.16;100.00;97447.22;5002462;28;20479;-78
2024/04/04 10:04:00;;;;;;;4.53;0.80;;;11.50;99.90;;;12.21;100.00;97457.88;5006490;28;20470;-79
2024/04/04 10:06:36;;;;;;;3.20;1.00;;;11.50;99.90;;;12.10;100.00;97458.53;5007831;28;21001;-79
2024/04/04 10:09:19;;;;;;;1.00;0.70;;;11.40;99.90;;;12.22;100.00;97464.69;5004066;28;20466;-78
2024/04/04 10:11:49;;;;;;;1.60;0.83;;;11.60;99.90;;;12.30;100.00;97463.66;5006799;28;20494;-79
2024/04/04 10:14:20;;;;;;;5.03;0.97;;;11.70;99.90;;;12.35;100.00;97461.22;5007671;28;20490;-78
2024/04/04 10:16:52;;;;;;;5.87;0.90;;;11.70;99.90;;;12.32;100.00;97451.94;5007070;28;20457;-78
2024/04/04 10:19:21;;;;;;;1.33;0.80;;;11.60;99.90;;;12.32;100.00;97451.94;5005566;28;20988;-78